ΕΜΥ, Εθνική Μετεωρολογική Υπηρεσία - Δελτία Καιρού, Προγνώσεις

ΑΕΡΟΝΑΥΤΙΛΙΑ

GREEK AIRPORTS CODES

LGKY 151700Z 36016G26KT CAVOK 27/14 Q1012 RMK HAND WIND ANEMOMETER OBSERVATION=

EUROPEAN AIRPORTS CODES

EBBR 160350Z 18004KT CAVOK 13/12 Q1020 NOSIG=